Spencer, North Carolina
Current Conditions -  °F | °C
As of 9:55 PM on Wednesday 22 Oct 2014 (Local Time) from KRUQ Reporting Station
Clear Clear  
Wind Chill: 50°   Ceiling: Unl
Heat Index: 50°   Visibility: 10mi
Dew Point: 39°   Wind: 3mph
Humidity: 66%   Direction: 320°NW
Pressure: 30.09"   Gusts: NA
Location:  35.69°N, 80.43°W
Report Text: KRUQ 230155Z AUTO 32003KT 10SM CLR 10/04 A3009 RMK AO2 T01000038
Loading
Personal Weather Stations






























Interactive Weather Map
Tropical Storm Tracking
New forecast layout! Learn more

10-Day Weather Forecast

Advertisements
Track Severe Weather on mobile